Nadym, Russia
Current Conditions -  °F | °C
As of 1:00 AM on Friday 30 Jan 2015 (Local Time) from USRR Reporting Station
Clear Clear  
Wind Chill: -9°   Ceiling: Unl
Heat Index:   Visibility: 4mi
Dew Point:   Wind: 16mph
Humidity: 85%   Direction: 220°SW
Pressure: 29.83"   Gusts: NA
Location:  65.53°N, 72.52°E
Report Text: USRR 292000Z 22007MPS 7000 SKC M13/M15 Q1010 NOSIG RMK QFE75225////37
Loading
Personal Weather Stations






























Interactive Weather Map New forecast layout! Learn more

10-Day Weather Forecast

Advertisements
Track Severe Weather on mobile